Time;durP1;ratioP1;P1;durP2;ratioP2;P2;SDS_P1;SDS_P2;PMS_P1;PMS_P2;Temp;Humidity;BMP_temperature;BMP_pressure;BME280_temperature;BME280_humidity;BME280_pressure;Samples;Min_cycle;Max_cycle;Signal;HPM_P1;HPM_P2
2022/08/24 00:02:02;;;;;;;10.15;5.25;;;;;;;23.31;39.33;101037.33;1795213;79;21992;-94
2022/08/24 00:04:32;;;;;;;11.67;5.00;;;;;;;23.24;39.36;101034.48;1812334;79;20948;-94
2022/08/24 00:07:00;;;;;;;16.25;5.05;;;;;;;23.21;39.28;101029.95;1797952;78;21183;-95
2022/08/24 00:09:29;;;;;;;14.07;5.20;;;;;;;23.20;39.54;101037.14;1805158;79;20938;-94
2022/08/24 00:11:57;;;;;;;14.20;6.53;;;;;;;23.18;39.36;101038.64;1805663;79;20908;-95
2022/08/24 00:14:24;;;;;;;11.90;4.67;;;;;;;23.17;39.63;101040.98;1805127;79;20972;-96
2022/08/24 00:19:41;;;;;;;10.53;4.87;;;;;;;23.21;39.68;101046.00;1891251;75;23932;-93
2022/08/24 00:22:08;;;;;;;16.55;5.50;;;;;;;23.15;39.87;101049.68;1857284;77;20966;-91
2022/08/24 00:24:36;;;;;;;14.95;4.90;;;;;;;23.11;40.38;101045.66;1856468;77;21523;-93
2022/08/24 00:27:03;;;;;;;15.28;4.92;;;;;;;23.10;41.17;101048.00;1856658;77;20887;-92
2022/08/24 00:29:30;;;;;;;8.73;5.17;;;;;;;23.07;41.51;101050.16;1857739;77;20887;-92
2022/08/24 00:31:57;;;;;;;6.92;4.87;;;;;;;23.05;42.25;101048.14;1858019;77;20962;-92
2022/08/24 00:34:25;;;;;;;13.18;4.30;;;;;;;23.00;42.26;101050.48;1856924;77;20911;-94
2022/08/24 00:36:53;;;;;;;7.85;4.53;;;;;;;22.93;42.33;101048.42;1856547;77;21213;-94
2022/08/24 00:39:21;;;;;;;10.60;4.92;;;;;;;22.88;41.83;101045.41;1856216;77;20840;-92
2022/08/24 00:41:49;;;;;;;10.45;4.58;;;;;;;22.85;41.75;101047.05;1856544;77;20912;-95
2022/08/24 00:44:16;;;;;;;14.47;5.47;;;;;;;22.82;41.76;101050.56;1856529;77;20970;-93
2022/08/24 00:46:54;;;;;;;12.70;4.85;;;;;;;22.79;44.20;101046.38;1857032;77;21365;-93
2022/08/24 00:49:30;;;;;;;11.53;5.42;;;;;;;22.74;44.88;101048.67;1840566;77;21877;-92
2022/08/24 00:52:17;;;;;;;9.78;5.42;;;;;;;22.65;45.63;101057.66;1776398;77;20927;-95
2022/08/24 00:54:48;;;;;;;12.20;4.87;;;;;;;22.58;43.58;101049.45;1856455;77;21369;-94
2022/08/24 00:57:18;;;;;;;13.68;5.67;;;;;;;22.53;43.21;101052.60;1857581;77;20922;-92
2022/08/24 00:59:53;;;;;;;8.33;4.37;;;;;;;22.50;42.25;101058.75;1857428;77;20931;-93
2022/08/24 01:02:24;;;;;;;12.43;4.85;;;;;;;22.49;41.71;101051.23;1856813;77;21230;-92
2022/08/24 01:04:57;;;;;;;8.88;4.30;;;;;;;22.49;41.73;101048.56;1856516;77;20872;-92
2022/08/24 01:07:27;;;;;;;12.05;4.47;;;;;;;22.50;41.82;101054.74;1856635;77;20908;-93
2022/08/24 01:09:57;;;;;;;17.70;5.75;;;;;;;22.49;41.35;101054.41;1856798;77;20915;-94
2022/08/24 01:12:27;;;;;;;13.43;4.53;;;;;;;22.50;41.12;101058.28;1857261;77;20919;-94
2022/08/24 01:19:43;;;;;;;12.37;4.53;;;;;;;22.53;41.04;101056.61;1734361;80;21006;-94
2022/08/24 01:22:31;;;;;;;12.10;4.85;;;;;;;22.55;41.09;101072.50;1791526;80;21365;-93
2022/08/24 01:24:58;;;;;;;17.57;4.53;;;;;;;22.55;41.05;101067.16;1792705;80;20978;-91
2022/08/24 01:27:31;;;;;;;12.58;5.15;;;;;;;22.54;41.06;101073.48;1758177;81;20900;-94
2022/08/24 01:29:58;;;;;;;17.20;4.25;;;;;;;22.52;40.98;101078.14;1743553;82;20988;-93
2022/08/24 01:32:28;;;;;;;10.70;4.30;;;;;;;22.50;40.76;101069.44;1726014;82;21425;-93
2022/08/24 01:34:56;;;;;;;14.68;4.70;;;;;;;22.51;40.79;101075.14;1755899;81;21468;-94
2022/08/24 01:37:22;;;;;;;16.70;4.92;;;;;;;22.50;40.71;101079.66;1756733;81;20884;-92
2022/08/24 01:39:50;;;;;;;14.95;4.92;;;;;;;22.50;40.57;101088.16;1756660;81;20900;-92
2022/08/24 01:42:18;;;;;;;16.32;6.70;;;;;;;22.50;40.50;101081.00;1756696;81;20951;-93
2022/08/24 01:44:44;;;;;;;13.30;4.67;;;;;;;22.51;40.19;101093.86;1757717;80;20955;-95
2022/08/24 01:47:12;;;;;;;10.45;4.90;;;;;;;22.51;40.11;101100.03;1757723;78;21062;-93
2022/08/24 01:49:42;;;;;;;15.32;5.47;;;;;;;22.53;40.25;101095.88;1757970;78;20935;-91
2022/08/24 01:52:13;;;;;;;8.60;4.53;;;;;;;22.53;40.19;101099.88;1756275;81;20892;-93
2022/08/24 01:54:42;;;;;;;22.80;4.65;;;;;;;22.52;40.22;101102.20;1757109;81;20967;-92
2022/08/24 01:57:09;;;;;;;13.90;5.15;;;;;;;22.52;40.18;101098.19;1756114;81;20865;-92
2022/08/24 01:59:37;;;;;;;16.10;6.00;;;;;;;22.51;40.16;101105.89;1755948;81;21277;-95
2022/08/24 02:02:11;;;;;;;15.95;5.30;;;;;;;22.50;40.01;101102.86;1696915;82;20967;-94
2022/08/24 02:04:38;;;;;;;18.73;6.33;;;;;;;22.50;40.22;101103.72;1756336;81;20939;-92
2022/08/24 02:07:05;;;;;;;16.25;4.95;;;;;;;22.50;40.25;101101.05;1757146;81;20983;-92
2022/08/24 02:09:31;;;;;;;20.37;6.22;;;;;;;22.49;40.10;101100.69;1756969;80;20920;-94
2022/08/24 02:11:59;;;;;;;15.08;5.25;;;;;;;22.49;40.20;101105.20;1757623;78;21265;-93
2022/08/24 02:14:27;;;;;;;10.82;5.33;;;;;;;22.47;40.46;101105.86;1757711;78;20955;-94
2022/08/24 02:16:55;;;;;;;15.80;4.17;;;;;;;22.46;40.41;101113.55;1750190;80;20984;-94
2022/08/24 02:19:24;;;;;;;13.58;5.53;;;;;;;22.43;40.65;101114.67;1787214;78;20889;-92
2022/08/24 02:21:51;;;;;;;14.80;5.95;;;;;;;22.42;40.69;101121.53;1787478;78;20975;-93
2022/08/24 02:24:17;;;;;;;17.40;5.40;;;;;;;22.38;40.65;101115.66;1787237;80;21204;-95
2022/08/24 02:26:44;;;;;;;22.40;5.05;;;;;;;22.37;40.90;101122.01;1756232;80;20911;-93
2022/08/24 02:29:11;;;;;;;19.52;5.05;;;;;;;22.36;40.88;101122.98;1786843;78;20919;-92
2022/08/24 02:31:39;;;;;;;15.20;4.70;;;;;;;22.34;40.97;101124.98;1785348;80;20881;-92
2022/08/24 02:34:06;;;;;;;12.53;4.50;;;;;;;22.30;41.04;101126.31;1786294;80;21010;-92
2022/08/24 02:36:33;;;;;;;13.93;5.78;;;;;;;22.26;41.24;101121.77;1785552;80;21189;-93
2022/08/24 02:39:00;;;;;;;16.95;5.25;;;;;;;22.24;41.52;101129.59;1786042;78;20963;-93
2022/08/24 02:41:27;;;;;;;18.17;5.70;;;;;;;22.21;41.68;101133.39;1786710;78;20900;-93
2022/08/24 02:43:55;;;;;;;14.85;5.60;;;;;;;22.18;42.15;101140.36;1786248;79;20979;-94
2022/08/24 02:46:24;;;;;;;16.85;6.85;;;;;;;22.15;42.43;101140.18;1787001;80;20885;-94
2022/08/24 02:48:52;;;;;;;14.35;6.22;;;;;;;22.11;42.61;101138.81;1785347;80;21275;-95
2022/08/24 02:51:25;;;;;;;14.15;6.37;;;;;;;22.06;42.86;101141.11;1786320;80;20912;-94
2022/08/24 02:53:52;;;;;;;14.73;6.90;;;;;;;22.01;43.06;101143.41;1785997;80;21365;-94
2022/08/24 02:56:22;;;;;;;14.05;7.58;;;;;;;21.96;43.26;101139.52;1754589;80;20912;-94
2022/08/24 02:58:49;;;;;;;19.42;6.92;;;;;;;21.91;43.49;101146.15;1784989;80;20971;-93
2022/08/24 03:01:16;;;;;;;18.57;6.75;;;;;;;21.86;43.84;101143.61;1785032;80;21843;-93
2022/08/24 03:03:45;;;;;;;14.68;6.95;;;;;;;21.83;43.51;101146.09;1784900;80;20888;-93
2022/08/24 03:06:12;;;;;;;13.50;5.78;;;;;;;21.79;43.64;101156.73;1785835;80;20876;-92
2022/08/24 03:08:38;;;;;;;18.20;7.10;;;;;;;21.76;43.89;101149.52;1785453;80;20944;-94
2022/08/24 03:11:07;;;;;;;15.68;6.97;;;;;;;21.72;44.13;101152.50;1785060;80;21440;-94
2022/08/24 03:13:34;;;;;;;13.38;7.22;;;;;;;21.69;44.05;101159.45;1785191;80;21096;-93
2022/08/24 03:16:02;;;;;;;24.90;8.45;;;;;;;21.64;44.28;101151.07;1780731;80;20873;-93
2022/08/24 03:18:30;;;;;;;15.80;8.00;;;;;;;21.61;44.46;101162.06;1776872;80;20892;-92
2022/08/24 03:20:58;;;;;;;17.42;9.38;;;;;;;21.59;44.64;101169.84;1740724;82;20908;-92
2022/08/24 03:23:26;;;;;;;19.45;10.32;;;;;;;21.55;44.85;101163.16;1777069;80;20972;-93
2022/08/24 03:25:54;;;;;;;24.63;9.98;;;;;;;21.49;44.94;101164.08;1754807;80;21318;-93
2022/08/24 03:28:25;;;;;;;26.30;10.82;;;;;;;21.45;45.09;101170.70;1776328;80;20853;-93
2022/08/24 03:30:52;;;;;;;16.65;10.88;;;;;;;21.40;45.61;101164.12;1776561;80;20900;-92
2022/08/24 03:33:19;;;;;;;18.65;10.63;;;;;;;21.36;45.66;101166.23;1776431;80;20905;-92
2022/08/24 03:35:47;;;;;;;15.70;9.18;;;;;;;21.33;45.74;101163.38;1776694;80;20942;-93
2022/08/24 03:38:15;;;;;;;17.32;8.75;;;;;;;21.31;45.71;101164.02;1739602;82;21135;-93
2022/08/24 03:40:45;;;;;;;20.57;9.43;;;;;;;21.30;45.74;101166.35;1776517;80;20924;-92
2022/08/24 03:43:44;;;;;;;16.57;8.45;;;;;;;21.29;45.55;101169.16;1776560;80;21323;-91
2022/08/24 03:45:41;;;;;;;24.15;9.58;;;;;;;21.28;45.56;101168.83;1754219;80;20901;-95
2022/08/24 03:48:33;;;;;;;18.02;7.12;;;;;;;21.26;45.63;101166.80;1739885;82;20976;-92
2022/08/24 03:50:54;;;;;;;19.75;7.30;;;;;;;21.24;45.59;101171.44;1775996;80;21330;-93
2022/08/24 03:53:21;;;;;;;18.25;7.03;;;;;;;21.24;45.79;101172.78;1718982;82;20924;-93
2022/08/24 03:55:47;;;;;;;17.40;6.60;;;;;;;21.24;45.69;101174.94;1776493;80;21362;-93
2022/08/24 03:58:14;;;;;;;16.65;6.90;;;;;;;21.27;45.86;101172.47;1776429;80;21433;-93
2022/08/24 04:00:41;;;;;;;20.55;6.03;;;;;;;21.28;45.89;101185.67;1739461;82;20862;-93
2022/08/24 04:03:10;;;;;;;18.70;5.80;;;;;;;21.30;45.79;101178.36;1776660;80;21085;-92
2022/08/24 04:05:38;;;;;;;16.87;5.45;;;;;;;21.32;45.63;101178.19;1777113;80;20959;-93
2022/08/24 04:08:06;;;;;;;22.48;5.35;;;;;;;21.34;45.50;101185.55;1718949;82;21059;-95
2022/08/24 04:10:33;;;;;;;24.27;5.25;;;;;;;21.37;45.25;101182.61;1777414;80;20881;-93
2022/08/24 04:13:02;;;;;;;17.80;6.30;;;;;;;21.39;45.23;101187.30;1707265;82;20995;-93
2022/08/24 04:15:30;;;;;;;20.20;7.25;;;;;;;21.42;44.94;101186.19;1777003;80;21243;-92
2022/08/24 04:17:57;;;;;;;24.27;7.50;;;;;;;21.44;44.45;101186.89;1740601;82;20892;-93
2022/08/24 04:20:27;;;;;;;24.65;7.12;;;;;;;21.50;43.98;101184.46;1754750;80;20944;-94
2022/08/24 04:22:57;;;;;;;18.60;6.67;;;;;;;21.56;43.99;101185.67;1754836;80;20976;-93
2022/08/24 04:25:24;;;;;;;14.40;6.03;;;;;;;21.61;43.82;101186.55;1739483;82;21358;-93
2022/08/24 04:27:51;;;;;;;18.55;6.15;;;;;;;21.66;43.67;101196.31;1776408;80;21843;-93
2022/08/24 04:30:23;;;;;;;14.23;5.28;;;;;;;21.71;43.45;101186.01;1740180;82;20948;-94
2022/08/24 04:33:05;;;;;;;15.88;7.40;;;;;;;21.78;43.61;101193.75;1776869;80;21262;-93
2022/08/24 04:35:38;;;;;;;26.93;8.35;;;;;;;21.86;43.17;101205.03;1777299;80;21027;-95
2022/08/24 04:38:07;;;;;;;25.57;7.37;;;;;;;21.94;42.99;101195.73;1777412;79;20928;-95
2022/08/24 04:40:40;;;;;;;21.48;6.03;;;;;;;22.06;42.78;101203.05;1740845;82;21278;-94
2022/08/24 04:43:14;;;;;;;14.78;4.62;;;;;;;22.18;42.71;101203.65;1751086;82;20971;-93
2022/08/24 04:45:46;;;;;;;19.82;5.20;;;;;;;22.30;42.22;101203.30;1773982;80;20920;-93
2022/08/24 04:48:14;;;;;;;14.80;5.12;;;;;;;22.44;42.23;101199.73;1740499;82;20901;-94
2022/08/24 04:50:43;;;;;;;15.15;5.20;;;;;;;22.56;41.64;101192.62;1777444;80;20916;-95
2022/08/24 04:53:12;;;;;;;18.20;5.37;;;;;;;22.70;41.12;101192.56;1777087;80;21468;-94
2022/08/24 04:55:49;;;;;;;26.35;5.22;;;;;;;22.90;40.43;101196.34;1777758;80;20888;-95
2022/08/24 04:58:19;;;;;;;22.58;5.08;;;;;;;23.18;40.16;101199.70;1778082;80;20975;-94
2022/08/24 05:00:47;;;;;;;24.20;6.25;;;;;;;23.50;39.89;101195.46;1720523;82;20987;-94
2022/08/24 05:03:17;;;;;;;22.17;5.90;;;;;;;23.91;38.74;101194.27;1753582;79;20967;-94
2022/08/24 05:06:04;;;;;;;14.98;4.75;;;;;;;24.51;38.20;101197.98;1771017;79;21235;31
2022/08/24 05:08:33;;;;;;;20.05;4.80;;;;;;;25.23;37.25;101192.64;1660664;84;20885;-93
2022/08/24 05:11:08;;;;;;;19.40;5.40;;;;;;;26.16;35.62;101190.08;1660885;84;21058;-93
2022/08/24 05:13:47;;;;;;;19.48;4.08;;;;;;;26.95;34.19;101191.86;1663257;86;20888;-92
2022/08/24 05:16:20;;;;;;;16.20;5.45;;;;;;;27.73;32.55;101197.61;1661103;86;20920;-95
2022/08/24 05:18:47;;;;;;;15.00;3.80;;;;;;;28.40;31.86;101188.81;1659278;86;21225;-93
2022/08/24 05:21:30;;;;;;;12.70;5.10;;;;;;;28.98;30.05;101194.00;1640284;86;21015;-94
2022/08/24 05:23:56;;;;;;;14.45;4.45;;;;;;;29.37;29.53;101196.58;1658832;86;21000;-95
2022/08/24 05:26:32;;;;;;;25.45;4.22;;;;;;;29.78;29.26;101188.42;1659833;85;20956;-92
2022/08/24 05:29:06;;;;;;;22.90;4.03;;;;;;;30.19;28.51;101190.11;1660181;85;20936;-95
2022/08/24 05:31:55;;;;;;;19.48;4.50;;;;;;;30.53;28.13;101189.10;1673919;81;21114;-94
2022/08/24 05:34:43;;;;;;;15.20;4.65;;;;;;;30.96;28.02;101181.84;1665435;85;20854;-93
2022/08/24 05:37:21;;;;;;;13.08;4.55;;;;;;;31.48;27.63;101183.23;1687543;85;20798;-95
2022/08/24 05:49:10;;;;;;;10.88;4.67;;;;;;;33.45;25.33;101185.91;1675467;81;20892;-96
2022/08/24 05:51:41;;;;;;;12.78;4.40;;;;;;;33.87;24.48;101175.61;1680486;82;20900;-94
2022/08/24 05:54:12;;;;;;;24.82;4.67;;;;;;;34.05;23.95;101174.98;1687866;85;20888;-96
2022/08/24 05:56:50;;;;;;;21.02;5.37;;;;;;;34.28;24.05;101181.53;1692808;84;20979;-95
2022/08/24 05:59:27;;;;;;;20.45;4.70;;;;;;;34.58;23.67;101177.33;1693684;84;21190;-96
2022/08/24 06:01:57;;;;;;;19.92;5.58;;;;;;;34.83;23.50;101179.81;1693422;84;20932;-93
2022/08/24 06:04:27;;;;;;;21.42;7.10;;;;;;;35.08;22.95;101194.52;1640997;83;21009;-94
2022/08/24 06:06:59;;;;;;;16.00;4.65;;;;;;;35.21;22.61;101185.78;1693240;84;21012;-96
2022/08/24 06:09:27;;;;;;;18.73;5.65;;;;;;;35.29;22.80;101185.41;1665084;83;21007;-96
2022/08/24 06:11:58;;;;;;;14.40;5.12;;;;;;;35.44;22.57;101182.98;1692546;84;21469;-93
2022/08/24 06:14:26;;;;;;;16.77;4.78;;;;;;;35.66;22.39;101187.23;1692840;84;20956;-94
2022/08/24 06:16:56;;;;;;;17.75;5.03;;;;;;;35.89;21.98;101195.80;1688315;84;21061;-95
2022/08/24 06:19:25;;;;;;;15.58;4.75;;;;;;;36.12;21.92;101188.55;1692767;85;20952;-94
2022/08/24 06:21:53;;;;;;;22.62;5.65;;;;;;;36.36;22.04;101185.66;1692069;85;20955;-93
2022/08/24 06:27:20;;;;;;;14.33;4.55;;;;;;;36.62;21.29;101194.53;1687742;84;21139;-95
2022/08/24 06:29:40;;;;;;;15.70;5.45;;;;;;;36.98;21.05;101192.81;1636990;87;20945;-96
2022/08/24 06:32:15;;;;;;;18.17;5.37;;;;;;;37.17;21.09;101185.94;1634160;87;21554;-96
2022/08/24 06:34:42;;;;;;;11.12;4.90;;;;;;;37.49;20.65;101181.91;1637271;86;20973;-95
2022/08/24 06:37:10;;;;;;;14.30;4.20;;;;;;;37.71;20.46;101182.44;1583557;90;21280;-92
2022/08/24 06:39:38;;;;;;;18.10;4.00;;;;;;;37.93;20.07;101190.02;1583404;90;21017;-95
2022/08/24 06:42:09;;;;;;;15.13;4.70;;;;;;;38.09;19.94;101180.58;1584420;88;20993;-95
2022/08/24 06:44:38;;;;;;;19.60;4.08;;;;;;;38.22;19.75;101165.58;1564094;90;21004;-94
2022/08/24 06:47:29;;;;;;;11.05;3.83;;;;;;;38.39;19.74;101171.72;1604313;85;21158;-96
2022/08/24 06:50:08;;;;;;;16.73;4.75;;;;;;;38.63;19.70;101156.27;1546389;84;21462;-94
2022/08/24 06:52:38;;;;;;;15.95;4.12;;;;;;;38.91;19.39;101153.61;1578628;89;20949;-94
2022/08/24 06:55:10;;;;;;;10.05;4.05;;;;;;;39.12;19.20;101163.59;1638316;86;21062;-95
2022/08/24 06:57:41;;;;;;;12.65;3.55;;;;;;;39.27;18.66;101139.49;1621863;86;20935;-94
2022/08/24 07:00:18;;;;;;;12.73;4.22;;;;;;;39.45;18.59;101152.45;1619554;85;21171;-95
2022/08/24 07:02:50;;;;;;;6.92;3.40;;;;;;;39.67;18.62;101148.08;1613800;87;21104;-94
2022/08/24 07:05:17;;;;;;;9.45;5.08;;;;;;;39.89;17.71;101147.80;1590239;90;21080;-96
2022/08/24 07:07:59;;;;;;;9.40;3.20;;;;;;;39.94;17.35;101136.27;1607148;85;20943;-93
2022/08/24 07:13:14;;;;;;;14.73;2.80;;;;;;;40.17;17.18;101135.39;1623456;87;20937;-95
2022/08/24 07:15:43;;;;;;;6.72;2.55;;;;;;;40.31;16.91;101131.01;1621091;88;21374;-92
2022/08/24 07:18:27;;;;;;;10.25;2.20;;;;;;;40.37;16.27;101128.49;1592923;88;20929;-93
2022/08/24 07:20:52;;;;;;;10.25;2.27;;;;;;;40.27;15.70;101142.28;1619533;88;20996;-92
2022/08/24 07:26:42;;;;;;;5.80;2.00;;;;;;;40.03;16.23;101138.46;1662904;83;21023;-95
2022/08/24 07:29:18;;;;;;;9.65;3.37;;;;;;;40.16;16.13;101131.02;1662353;85;21246;-93
2022/08/24 07:31:49;;;;;;;8.63;4.15;;;;;;;40.33;16.33;101126.05;1664183;85;20877;-92
2022/08/24 07:34:20;;;;;;;6.40;3.22;;;;;;;40.64;16.52;101131.97;1674817;85;20905;-95
2022/08/24 07:36:53;;;;;;;9.00;2.80;;;;;;;40.84;15.86;101129.15;1632380;84;20948;-94
2022/08/24 07:39:20;;;;;;;7.20;2.90;;;;;;;40.83;15.66;101129.45;1630542;86;20960;-94
2022/08/24 07:41:48;;;;;;;8.00;2.92;;;;;;;40.88;15.50;101131.61;1630396;86;21193;-95
2022/08/24 07:44:22;;;;;;;7.28;2.17;;;;;;;40.78;15.22;101128.37;1647747;85;20948;-94
2022/08/24 07:46:53;;;;;;;9.03;2.33;;;;;;;40.64;15.59;101131.97;1661472;85;20876;-93
2022/08/24 07:49:21;;;;;;;4.65;2.60;;;;;;;40.53;15.83;101115.53;1661934;81;20889;-94
2022/08/24 07:51:53;;;;;;;7.33;2.55;;;;;;;40.65;15.61;101122.08;1665298;83;20985;-93
2022/08/24 07:54:20;;;;;;;9.68;2.75;;;;;;;40.80;15.41;101115.16;1652698;85;21213;-95
2022/08/24 07:56:49;;;;;;;7.20;2.30;;;;;;;40.91;15.48;101106.83;1664721;86;21455;-93
2022/08/24 07:59:18;;;;;;;4.05;1.95;;;;;;;41.01;15.56;101113.09;1664502;85;20890;-92
2022/08/24 08:01:49;;;;;;;8.48;2.65;;;;;;;41.25;15.25;101113.80;1652513;85;20950;-93
2022/08/24 08:04:20;;;;;;;12.73;3.17;;;;;;;41.49;15.17;101104.79;1640109;85;21256;-95
2022/08/24 08:06:51;;;;;;;7.75;3.05;;;;;;;41.63;15.29;101108.56;1657622;85;21134;-93
2022/08/24 08:09:18;;;;;;;7.65;3.65;;;;;;;41.79;15.10;101112.00;1644537;86;20902;-92
2022/08/24 08:11:45;;;;;;;9.15;4.03;;;;;;;41.87;14.98;101110.00;1652183;85;20942;-94
2022/08/24 08:26:37;;;;;;;10.00;2.40;;;;;;;42.13;14.66;101116.63;1808128;78;22300;-92
2022/08/24 08:29:19;;;;;;;8.33;3.05;;;;;;;42.05;14.38;101113.97;1754536;81;20923;-92
2022/08/24 08:31:50;;;;;;;7.65;1.98;;;;;;;41.87;14.52;101103.64;1691985;84;21400;-93
2022/08/24 08:34:19;;;;;;;10.45;2.12;;;;;;;41.67;14.52;101109.64;1688845;83;21033;-94
2022/08/24 08:36:47;;;;;;;19.65;15.78;;;;;;;41.56;14.53;101114.97;1689097;84;20896;-94
2022/08/24 08:39:21;;;;;;;10.72;2.67;;;;;;;41.36;14.83;101102.16;1689823;81;20951;-94
2022/08/24 08:42:20;;;;;;;8.75;2.45;;;;;;;41.25;14.43;101117.94;1643117;83;20942;-94
2022/08/24 08:45:17;;;;;;;6.33;1.75;;;;;;;41.13;14.48;101105.88;1691948;81;21402;-91
2022/08/24 08:48:25;;;;;;;10.38;2.08;;;;;;;41.25;14.45;101096.47;1645172;85;20957;-94
2022/08/24 08:51:25;;;;;;;11.90;2.92;;;;;;;41.25;13.69;101112.43;1591332;86;20938;-92
2022/08/24 08:54:27;;;;;;;11.20;2.47;;;;;;;40.89;13.69;101111.26;1605662;88;21424;-93
2022/08/24 08:57:35;;;;;;;5.95;1.77;;;;;;;40.57;13.88;101108.34;1597887;86;20879;-94
2022/08/24 09:00:21;;;;;;;11.00;2.35;;;;;;;40.30;13.98;101094.98;1603068;86;21287;-94
2022/08/24 13:34:50;;;;;;;7.40;2.67;;;;;;;32.47;17.86;101021.16;1858207;76;23356;-92
2022/08/24 13:37:30;;;;;;;8.63;1.60;;;;;;;32.40;17.62;101045.14;1819013;77;20837;31
2022/08/24 13:40:20;;;;;;;10.30;1.95;;;;;;;32.35;17.33;101026.50;1679758;81;21149;-95
2022/08/24 13:43:14;;;;;;;7.28;2.77;;;;;;;32.28;17.17;101057.80;1712012;80;20926;-93
2022/08/24 13:45:58;;;;;;;5.65;1.55;;;;;;;32.16;17.01;101038.72;1696468;83;20908;-95
2022/08/24 13:49:02;;;;;;;9.10;1.98;;;;;;;32.09;17.17;101023.58;1696355;83;20985;-95
2022/08/24 13:51:54;;;;;;;5.80;1.60;;;;;;;32.03;17.38;101032.61;1696328;83;20953;-95
2022/08/24 13:54:59;;;;;;;9.38;1.77;;;;;;;31.95;17.54;101033.17;1672351;84;20882;-96
2022/08/24 13:57:49;;;;;;;6.20;1.47;;;;;;;31.91;17.79;101024.36;1679067;83;20909;-94
2022/08/24 14:00:39;;;;;;;6.33;1.70;;;;;;;31.87;18.28;101028.03;1674090;83;20906;-94
2022/08/24 14:03:14;;;;;;;12.03;1.90;;;;;;;31.84;18.48;101023.06;1696581;83;20994;-94
2022/08/24 14:06:23;;;;;;;6.83;2.67;;;;;;;31.83;18.46;101020.56;1655213;83;21024;-93
2022/08/24 14:09:17;;;;;;;11.60;2.12;;;;;;;31.79;18.45;101014.75;1695661;84;21125;-93
2022/08/24 14:12:19;;;;;;;8.60;1.95;;;;;;;31.75;18.60;101013.52;1672585;83;21493;-94
2022/08/24 14:15:22;;;;;;;7.45;1.80;;;;;;;31.70;18.33;101019.62;1696037;83;20949;-95
2022/08/24 14:18:11;;;;;;;6.40;1.62;;;;;;;31.65;18.03;101024.89;1692935;83;20960;-93
2022/08/24 14:21:12;;;;;;;10.00;1.85;;;;;;;31.60;18.26;101013.89;1739758;82;20892;-94
2022/08/24 14:23:54;;;;;;;6.20;1.30;;;;;;;31.56;18.16;101012.13;1751476;82;21448;-96
2022/08/24 14:26:39;;;;;;;6.08;1.62;;;;;;;31.51;18.00;101009.80;1751048;80;20975;-94
2022/08/24 14:29:25;;;;;;;7.05;1.50;;;;;;;31.48;18.09;101017.85;1750975;80;20913;-94
2022/08/24 14:32:02;;;;;;;9.50;2.27;;;;;;;31.47;18.36;101011.28;1746638;80;20939;-94
2022/08/24 14:34:53;;;;;;;3.85;1.20;;;;;;;31.44;18.39;101013.92;1751676;80;20860;-95
2022/08/24 14:37:25;;;;;;;10.25;1.00;;;;;;;31.40;18.07;101010.77;1750513;80;21883;-92
2022/08/24 14:40:16;;;;;;;4.47;0.88;;;;;;;31.38;18.22;101014.77;1750357;81;20994;-95
2022/08/24 14:43:00;;;;;;;2.60;0.88;;;;;;;31.35;18.17;101011.97;1747265;80;20865;-94
2022/08/24 14:45:42;;;;;;;8.83;0.78;;;;;;;31.33;18.15;101010.00;1734662;80;21049;-94
2022/08/24 14:48:41;;;;;;;15.10;1.87;;;;;;;31.30;17.91;101010.42;1732214;82;20961;-94
2022/08/24 14:51:36;;;;;;;2.72;0.93;;;;;;;31.29;18.07;101019.62;1727920;82;21171;-94
2022/08/24 14:54:22;;;;;;;7.05;1.40;;;;;;;31.26;18.08;101011.94;1723635;82;21000;-93
2022/08/24 14:57:27;;;;;;;4.55;1.30;;;;;;;31.25;18.17;101018.92;1671935;84;21011;-91
2022/08/24 15:00:13;;;;;;;9.93;2.02;;;;;;;31.21;18.33;101012.28;1663311;85;20929;-92
2022/08/24 15:02:59;;;;;;;5.53;1.57;;;;;;;31.17;18.46;101015.94;1697331;84;21647;-92
2022/08/24 15:05:46;;;;;;;5.60;1.80;;;;;;;31.12;18.16;101023.37;1663363;83;23082;-92
2022/08/24 15:08:41;;;;;;;4.45;1.65;;;;;;;31.09;18.44;101018.40;1664456;83;21090;-95
2022/08/24 15:11:15;;;;;;;5.50;1.60;;;;;;;31.06;18.46;101016.64;1662757;83;20960;-96
2022/08/24 15:14:04;;;;;;;9.60;5.45;;;;;;;31.02;18.89;101023.03;1696471;84;21008;-94
2022/08/24 15:16:54;;;;;;;11.25;5.62;;;;;;;30.98;19.65;101019.92;1661979;85;21028;-93
2022/08/24 15:19:54;;;;;;;10.03;4.85;;;;;;;30.93;19.48;101017.57;1696313;84;21249;-93
2022/08/24 15:22:48;;;;;;;17.65;5.20;;;;;;;30.85;19.83;101017.28;1663654;86;21489;-92
2022/08/24 15:25:24;;;;;;;;;;;;;;;30.79;19.74;101016.76;1665583;86;20987;-94
2022/08/24 15:27:58;;;;;;;12.58;6.53;;;;;;;30.74;20.17;101013.88;1634212;86;20171;-95
2022/08/24 15:30:33;;;;;;;10.40;3.77;;;;;;;30.68;20.30;101008.81;1662868;86;20929;-92
2022/08/24 15:33:14;;;;;;;8.33;4.12;;;;;;;30.61;19.75;101028.30;1662752;86;21473;-96
2022/08/24 15:35:44;;;;;;;10.13;4.97;;;;;;;30.55;19.63;101016.47;1662389;86;21039;-94
2022/08/24 15:38:40;;;;;;;14.68;7.10;;;;;;;30.50;20.15;101010.84;1663224;86;20932;-95
2022/08/24 15:41:38;;;;;;;16.48;9.33;;;;;;;30.46;20.42;101020.96;1662284;85;20996;-92
2022/08/24 15:44:12;;;;;;;15.35;10.63;;;;;;;30.37;19.59;101020.36;1664505;86;21024;-91
2022/08/24 15:46:50;;;;;;;20.02;8.88;;;;;;;30.32;19.97;101016.13;1665032;86;21035;-91
2022/08/24 15:49:23;;;;;;;10.58;4.15;;;;;;;30.27;20.22;101012.70;1664106;86;20917;-93
2022/08/24 15:52:06;;;;;;;7.12;4.15;;;;;;;30.22;20.41;101021.14;1664523;86;21001;-92
2022/08/24 15:54:36;;;;;;;15.68;4.90;;;;;;;30.16;20.62;101019.56;1634732;84;21084;-93
2022/08/24 15:57:32;;;;;;;15.38;4.95;;;;;;;30.10;21.05;101019.08;1667228;81;21522;-93
2022/08/24 16:02:24;;;;;;;9.88;4.80;;;;;;;30.03;21.13;101018.24;1686057;85;21442;-93
2022/08/24 16:02:58;;;;;;;12.03;5.75;;;;;;;29.93;21.07;101016.52;1685721;85;20898;-93
2022/08/24 16:05:38;;;;;;;14.95;6.53;;;;;;;29.84;21.16;101024.00;1679992;85;20975;-94
2022/08/24 16:08:10;;;;;;;13.85;6.35;;;;;;;29.77;21.44;101022.33;1685445;84;21005;-94
2022/08/24 16:10:54;;;;;;;12.07;7.27;;;;;;;29.71;21.48;101024.02;1685522;85;20922;-94
2022/08/24 16:13:32;;;;;;;22.67;9.63;;;;;;;29.63;21.56;101024.19;1661574;85;21554;-94
2022/08/24 16:16:07;;;;;;;10.55;7.85;;;;;;;29.53;21.66;101027.31;1665793;86;21540;-94
2022/08/24 16:18:52;;;;;;;15.70;7.30;;;;;;;29.45;21.73;101028.33;1692990;84;20995;-91
2022/08/24 16:21:36;;;;;;;16.00;6.47;;;;;;;29.37;21.72;101035.31;1693123;84;20935;-91
2022/08/24 16:24:15;;;;;;;10.10;5.03;;;;;;;29.30;21.90;101040.70;1692098;84;20959;-89
2022/08/24 16:26:50;;;;;;;14.73;6.33;;;;;;;29.22;22.23;101037.36;1691849;84;21185;-89
2022/08/24 16:29:37;;;;;;;11.22;4.87;;;;;;;29.14;22.31;101039.19;1693299;84;20911;-92
2022/08/24 16:32:19;;;;;;;13.32;5.35;;;;;;;29.07;22.49;101045.59;1688508;84;20911;-90
2022/08/24 16:34:52;;;;;;;35.13;26.97;;;;;;;28.98;22.33;101043.59;1693686;84;21441;-93
2022/08/24 16:37:19;;;;;;;15.23;8.58;;;;;;;28.90;22.76;101044.63;1688788;84;20908;-90
2022/08/24 16:39:47;;;;;;;9.55;5.03;;;;;;;28.83;22.96;101042.92;1693864;84;21308;-92
2022/08/24 16:42:26;;;;;;;21.00;6.03;;;;;;;28.76;23.59;101042.90;1694593;84;20852;-93
2022/08/24 16:44:55;;;;;;;18.42;6.72;;;;;;;28.68;24.51;101051.16;1693597;84;21014;-92
2022/08/24 16:47:23;;;;;;;11.18;6.10;;;;;;;28.57;26.38;101053.08;1693453;84;20927;-93
2022/08/24 16:49:50;;;;;;;23.85;5.97;;;;;;;28.44;27.27;101056.02;1665573;84;21040;-91
2022/08/24 16:52:19;;;;;;;21.55;6.12;;;;;;;28.32;28.61;101054.89;1693214;84;20892;-93
2022/08/24 16:54:45;;;;;;;25.50;6.70;;;;;;;28.18;29.78;101059.38;1693518;84;20923;-93
2022/08/24 16:57:23;;;;;;;34.13;7.08;;;;;;;28.04;30.36;101058.45;1693823;84;21014;-93
2022/08/24 16:59:51;;;;;;;29.40;13.32;;;;;;;27.88;31.04;101065.47;1716198;83;20912;-94
2022/08/24 17:02:20;;;;;;;32.98;12.65;;;;;;;27.74;31.54;101073.11;1753574;81;20928;-93
2022/08/24 17:04:48;;;;;;;42.58;11.53;;;;;;;27.57;32.14;101065.80;1753836;81;21239;-93